createdAt,value
2023-09-10T00:04:24.308Z,100239.30
2023-09-10T00:09:27.600Z,100234.77
2023-09-10T00:14:31.591Z,100230.87
2023-09-10T00:19:34.964Z,100223.95
2023-09-10T00:24:37.779Z,100221.34
2023-09-10T00:29:40.832Z,100215.34
2023-09-10T00:34:42.791Z,100213.98
2023-09-10T00:39:45.983Z,100208.61
2023-09-10T00:44:48.743Z,100204.40
2023-09-10T00:49:51.615Z,100207.95
2023-09-10T00:54:54.327Z,100206.73
2023-09-10T00:59:59.179Z,100207.92
2023-09-10T01:05:04.108Z,100214.20
2023-09-10T01:10:08.296Z,100209.02
2023-09-10T01:15:30.207Z,100206.95
2023-09-10T01:21:06.143Z,100207.54
2023-09-10T01:26:10.133Z,100208.80
2023-09-10T01:31:12.879Z,100210.07
2023-09-10T01:36:31.845Z,100205.91
2023-09-10T01:41:37.017Z,100209.61
2023-09-10T01:46:41.970Z,100212.06
2023-09-10T01:51:45.516Z,100209.27
2023-09-10T01:56:47.999Z,100204.32
2023-09-10T02:01:50.860Z,100200.73
2023-09-10T02:06:55.100Z,100202.00
2023-09-10T02:11:58.752Z,100201.02
2023-09-10T02:17:03.334Z,100203.14
2023-09-10T02:22:06.948Z,100200.48
2023-09-10T02:27:10.992Z,100194.90
2023-09-10T02:32:13.918Z,100199.99
2023-09-10T02:37:16.977Z,100193.91
2023-09-10T02:42:19.781Z,100192.63
2023-09-10T02:47:22.919Z,100194.27
2023-09-10T02:52:27.673Z,100199.34
2023-09-10T02:57:30.325Z,100194.98
2023-09-10T03:02:33.261Z,100189.73
2023-09-10T03:07:36.927Z,100188.94
2023-09-10T03:12:39.915Z,100193.83
2023-09-10T03:17:42.475Z,100194.31
2023-09-10T03:22:46.264Z,100192.02
2023-09-10T03:27:49.529Z,100189.80
2023-09-10T03:32:53.150Z,100183.34
2023-09-10T03:37:56.284Z,100181.58
2023-09-10T03:42:59.537Z,100177.81
2023-09-10T03:48:03.381Z,100171.74
2023-09-10T03:53:06.734Z,100166.81
2023-09-10T03:58:11.120Z,100160.01
2023-09-10T04:03:14.693Z,100161.74
2023-09-10T04:08:18.470Z,100164.97
2023-09-10T04:13:21.817Z,100166.78
2023-09-10T04:18:25.462Z,100165.36
2023-09-10T04:23:29.120Z,100163.73
2023-09-10T04:28:32.358Z,100166.23
2023-09-10T04:33:36.419Z,100159.34
2023-09-10T04:38:40.456Z,100154.62
2023-09-10T04:43:43.648Z,100152.08
2023-09-10T04:48:46.957Z,100157.70
2023-09-10T04:53:53.558Z,100154.55
2023-09-10T04:58:56.864Z,100157.05
2023-09-10T05:04:00.581Z,100157.36
2023-09-10T05:09:05.003Z,100150.42
2023-09-10T05:14:08.628Z,100155.54
2023-09-10T05:19:11.704Z,100156.66
2023-09-10T05:24:14.110Z,100161.08
2023-09-10T05:29:16.365Z,100161.23
2023-09-10T05:34:20.404Z,100161.29
2023-09-10T05:39:24.148Z,100159.77
2023-09-10T05:44:26.833Z,100163.38
2023-09-10T05:49:29.490Z,100169.23
2023-09-10T05:54:32.275Z,100172.92
2023-09-10T05:59:34.811Z,100171.60
2023-09-10T06:04:37.295Z,100173.15
2023-09-10T06:09:39.477Z,100177.42
2023-09-10T06:14:43.541Z,100179.63
2023-09-10T06:19:49.629Z,100182.25
2023-09-10T06:24:53.025Z,100181.38
2023-09-10T06:29:55.899Z,100180.29
2023-09-10T06:34:59.243Z,100173.40
2023-09-10T06:40:02.479Z,100174.85
2023-09-10T06:45:05.428Z,100176.98
2023-09-10T06:50:08.277Z,100174.86
2023-09-10T06:55:11.917Z,100177.73
2023-09-10T07:00:15.374Z,100183.13
2023-09-10T07:05:17.962Z,100189.43
2023-09-10T07:10:23.855Z,100191.00
2023-09-10T07:15:26.818Z,100190.58
2023-09-10T07:20:29.523Z,100194.40
2023-09-10T07:25:31.718Z,100194.06
2023-09-10T07:30:36.614Z,100199.04
2023-09-10T07:35:40.476Z,100197.86
2023-09-10T07:40:43.825Z,100198.44
2023-09-10T07:45:48.517Z,100201.52
2023-09-10T07:50:57.601Z,100199.07
2023-09-10T07:56:01.353Z,100195.76
2023-09-10T08:01:05.050Z,100192.66
2023-09-10T08:06:08.398Z,100193.77
2023-09-10T08:11:11.719Z,100190.52
2023-09-10T08:16:16.600Z,100194.95
2023-09-10T08:21:21.216Z,100191.40
2023-09-10T08:26:25.486Z,100187.42
2023-09-10T08:31:28.553Z,100184.35
2023-09-10T08:36:32.606Z,100180.61
2023-09-10T08:41:48.357Z,100176.27
2023-09-10T08:46:53.357Z,100179.45
2023-09-10T08:51:57.527Z,100181.84
2023-09-10T08:57:00.900Z,100172.34
2023-09-10T09:02:03.527Z,100170.60
2023-09-10T09:07:10.371Z,100166.29
2023-09-10T09:12:14.898Z,100170.38
2023-09-10T09:17:21.644Z,100169.44
2023-09-10T09:22:29.617Z,100169.69
2023-09-10T09:27:35.064Z,100168.09
2023-09-10T09:32:41.020Z,100166.13
2023-09-10T09:37:44.939Z,100164.02
2023-09-10T09:42:48.204Z,100160.46
2023-09-10T09:47:52.212Z,100158.67
2023-09-10T09:52:56.823Z,100149.23
2023-09-10T09:57:59.322Z,100139.35
2023-09-10T10:03:03.955Z,100136.89
2023-09-10T10:08:07.783Z,100132.64
2023-09-10T10:13:10.947Z,100124.42
2023-09-10T10:18:16.308Z,100121.02
2023-09-10T10:23:25.968Z,100120.91
2023-09-10T10:28:31.915Z,100123.61
2023-09-10T10:33:38.492Z,100112.49
2023-09-10T10:38:45.902Z,100112.48
2023-09-10T10:43:54.021Z,100109.34
2023-09-10T10:49:02.296Z,100102.59
2023-09-10T10:54:05.006Z,100092.02
2023-09-10T10:59:08.046Z,100092.69
2023-09-10T11:04:20.202Z,100080.88
2023-09-10T11:09:36.526Z,100076.77
2023-09-10T11:14:58.109Z,100071.77
2023-09-10T11:20:01.602Z,100069.59
2023-09-10T11:25:08.753Z,100068.09
2023-09-10T11:30:21.328Z,100064.07
2023-09-10T11:35:23.671Z,100067.77
2023-09-10T11:40:26.573Z,100068.74
2023-09-10T11:45:33.297Z,100064.46
2023-09-10T11:50:36.480Z,100067.02
2023-09-10T11:55:39.367Z,100060.54
2023-09-10T12:00:44.024Z,100060.09
2023-09-10T12:05:47.388Z,100061.75
2023-09-10T12:10:55.416Z,100058.70
2023-09-10T12:15:57.922Z,100059.46
2023-09-10T12:21:01.319Z,100056.02
2023-09-10T12:26:05.070Z,100050.84
2023-09-10T12:31:07.721Z,100042.30
2023-09-10T12:36:10.742Z,100039.95
2023-09-10T12:41:17.590Z,100036.65
2023-09-10T12:46:20.229Z,100034.28
2023-09-10T12:51:22.578Z,100027.78
2023-09-10T12:56:25.369Z,100021.27
2023-09-10T13:01:28.677Z,100017.77
2023-09-10T13:06:31.422Z,100019.18
2023-09-10T13:11:35.257Z,100019.27
2023-09-10T13:16:39.187Z,100015.26
2023-09-10T13:21:42.861Z,100013.67
2023-09-10T13:26:45.958Z,100010.74
2023-09-10T13:31:48.937Z,100011.11
2023-09-10T13:36:52.722Z,100006.83
2023-09-10T13:41:56.334Z,100004.43
2023-09-10T13:46:59.477Z,99998.15
2023-09-10T13:52:01.783Z,99994.98
2023-09-10T13:57:05.160Z,99995.63
2023-09-10T14:02:07.796Z,99994.92
2023-09-10T14:07:10.289Z,99993.94
2023-09-10T14:12:12.688Z,99993.35
2023-09-10T14:17:15.117Z,99999.58
2023-09-10T14:22:17.776Z,99995.96
2023-09-10T14:27:20.686Z,99991.60
2023-09-10T14:32:23.234Z,99986.98
2023-09-10T14:37:26.616Z,99987.61
2023-09-10T14:42:28.547Z,99986.88
2023-09-10T14:47:36.229Z,99984.83
2023-09-10T14:52:39.154Z,99983.88
2023-09-10T14:57:43.179Z,99981.39
2023-09-10T15:02:45.536Z,99976.40
2023-09-10T15:07:48.169Z,99975.20
2023-09-10T15:12:50.388Z,99964.48
2023-09-10T15:17:53.011Z,99957.42
2023-09-10T15:22:55.302Z,99956.03
2023-09-10T15:27:57.491Z,99951.36
2023-09-10T15:33:01.130Z,99950.86
2023-09-10T15:38:05.780Z,99943.02
2023-09-10T15:43:08.892Z,99938.36
2023-09-10T15:48:12.783Z,99936.36
2023-09-10T15:53:16.605Z,99934.07
2023-09-10T15:58:20.224Z,99935.09
2023-09-10T16:03:24.585Z,99939.11
2023-09-10T16:08:31.332Z,99944.71
2023-09-10T16:13:35.442Z,99942.98
2023-09-10T16:18:39.232Z,99941.64
2023-09-10T16:23:43.945Z,99937.48
2023-09-10T16:28:48.718Z,99936.79
2023-09-10T16:33:52.723Z,99932.43
2023-09-10T16:38:57.052Z,99932.73
2023-09-10T16:44:02.126Z,99931.63
2023-09-10T16:49:06.983Z,99928.09
2023-09-10T16:54:09.968Z,99929.70
2023-09-10T16:59:20.785Z,99928.52
2023-09-10T17:04:31.716Z,99928.33
2023-09-10T17:09:34.887Z,99934.84
2023-09-10T17:14:37.266Z,99931.39
2023-09-10T17:19:39.513Z,99932.10
2023-09-10T17:24:41.512Z,99931.05
2023-09-10T17:29:43.874Z,99928.77
2023-09-10T17:34:45.980Z,99928.20
2023-09-10T17:39:48.157Z,99930.66
2023-09-10T17:44:52.139Z,99929.60
2023-09-10T17:50:05.356Z,99933.35
2023-09-10T17:55:12.096Z,99930.20
2023-09-10T18:00:14.686Z,99932.81
2023-09-10T18:05:17.389Z,99937.86
2023-09-10T18:10:21.441Z,99940.09
2023-09-10T18:15:25.091Z,99939.05
2023-09-10T18:20:28.432Z,99943.73
2023-09-10T18:25:32.112Z,99945.10
2023-09-10T18:30:34.587Z,99947.27
2023-09-10T18:35:38.107Z,99951.59
2023-09-10T18:40:46.242Z,99949.68
2023-09-10T18:45:49.186Z,99949.45
2023-09-10T18:50:53.187Z,99946.77
2023-09-10T18:55:57.414Z,99936.05
2023-09-10T19:01:03.007Z,99934.08
2023-09-10T19:06:07.246Z,99932.67
2023-09-10T19:11:11.242Z,99932.31
2023-09-10T19:16:18.851Z,99935.05
2023-09-10T19:21:23.121Z,99939.73
2023-09-10T19:26:26.758Z,99944.21
2023-09-10T19:31:35.472Z,99945.55
2023-09-10T19:36:39.276Z,99948.65
2023-09-10T19:41:44.261Z,99947.98
2023-09-10T19:46:48.166Z,99952.51
2023-09-10T19:51:55.145Z,99954.67
2023-09-10T19:57:00.037Z,99954.19
2023-09-10T20:02:06.192Z,99946.56
2023-09-10T20:07:10.013Z,99942.15
2023-09-10T20:12:14.166Z,99943.10
2023-09-10T20:17:18.837Z,99934.88
2023-09-10T20:22:22.100Z,99931.74
2023-09-10T20:27:26.266Z,99930.84
2023-09-10T20:32:30.522Z,99930.64
2023-09-10T20:37:33.318Z,99924.73
2023-09-10T20:42:37.465Z,99924.98
2023-09-10T20:47:40.717Z,99929.05
2023-09-10T20:52:47.634Z,99924.11
2023-09-10T20:57:51.079Z,99923.39
2023-09-10T21:02:58.570Z,99924.11
2023-09-10T21:08:02.024Z,99920.23
2023-09-10T21:13:12.007Z,99919.80
2023-09-10T21:18:16.349Z,99917.17
2023-09-10T21:23:20.893Z,99916.16
2023-09-10T21:28:25.022Z,99915.61
2023-09-10T21:33:28.546Z,99913.20
2023-09-10T21:38:32.362Z,99917.35
2023-09-10T21:43:36.043Z,99917.45
2023-09-10T21:48:39.757Z,99914.58
2023-09-10T21:53:44.218Z,99908.41
2023-09-10T21:58:47.605Z,99908.56
2023-09-10T22:03:50.529Z,99906.66
2023-09-10T22:08:54.258Z,99906.05
2023-09-10T22:13:58.116Z,99905.73
2023-09-10T22:19:02.571Z,99904.93
2023-09-10T22:24:06.240Z,99902.11
2023-09-10T22:29:09.697Z,99903.95
2023-09-10T22:34:13.086Z,99900.14
2023-09-10T22:39:17.261Z,99902.71
2023-09-10T22:44:19.386Z,99906.29
2023-09-10T22:49:22.537Z,99906.36
2023-09-10T22:54:25.409Z,99904.50
2023-09-10T22:59:28.367Z,99907.63
2023-09-10T23:04:31.206Z,99908.67
2023-09-10T23:09:35.310Z,99910.52
2023-09-10T23:14:39.712Z,99907.39
2023-09-10T23:19:42.567Z,99909.06
2023-09-10T23:24:47.573Z,99910.08
2023-09-10T23:29:50.934Z,99911.23
2023-09-10T23:34:54.798Z,99908.14
2023-09-10T23:39:59.374Z,99901.34
2023-09-10T23:45:03.267Z,99901.94
2023-09-10T23:50:07.341Z,99896.64
2023-09-10T23:55:10.040Z,99887.56
